sensor_id;sensor_type;location;lat;lon;timestamp;pressure;altitude;pressure_sealevel;temperature;humidity
80726;BME280;70113;59.928;10.878;2023-06-14T00:00:12;99834.63;;;18.62;54.85
80726;BME280;70113;59.928;10.878;2023-06-14T00:02:57;99834.34;;;18.67;54.53
80726;BME280;70113;59.928;10.878;2023-06-14T00:05:24;99821.63;;;18.39;55.91
80726;BME280;70113;59.928;10.878;2023-06-14T00:07:49;99823.97;;;18.45;55.57
80726;BME280;70113;59.928;10.878;2023-06-14T00:10:19;99801.63;;;18.29;56.15
80726;BME280;70113;59.928;10.878;2023-06-14T00:12:44;99829.31;;;18.45;55.56
80726;BME280;70113;59.928;10.878;2023-06-14T00:15:10;99828.53;;;18.43;55.87
80726;BME280;70113;59.928;10.878;2023-06-14T00:17:36;99827.00;;;18.21;56.66
80726;BME280;70113;59.928;10.878;2023-06-14T00:20:04;99806.84;;;18.14;56.28
80726;BME280;70113;59.928;10.878;2023-06-14T00:22:33;99824.97;;;18.27;56.35
80726;BME280;70113;59.928;10.878;2023-06-14T00:25:00;99833.41;;;18.35;55.57
80726;BME280;70113;59.928;10.878;2023-06-14T00:27:25;99814.59;;;18.20;55.36
80726;BME280;70113;59.928;10.878;2023-06-14T00:29:51;99800.59;;;18.15;55.07
80726;BME280;70113;59.928;10.878;2023-06-14T00:32:18;99830.91;;;18.32;54.89
80726;BME280;70113;59.928;10.878;2023-06-14T00:34:44;99839.16;;;18.44;54.43
80726;BME280;70113;59.928;10.878;2023-06-14T00:37:09;99832.31;;;18.39;54.77
80726;BME280;70113;59.928;10.878;2023-06-14T00:39:35;99836.38;;;18.30;55.48
80726;BME280;70113;59.928;10.878;2023-06-14T00:42:01;99797.28;;;18.10;55.40
80726;BME280;70113;59.928;10.878;2023-06-14T00:44:27;99833.25;;;18.38;55.51
80726;BME280;70113;59.928;10.878;2023-06-14T00:46:52;99795.53;;;18.27;55.69
80726;BME280;70113;59.928;10.878;2023-06-14T00:49:19;99823.28;;;18.41;56.07
80726;BME280;70113;59.928;10.878;2023-06-14T00:51:45;99827.22;;;18.34;56.43
80726;BME280;70113;59.928;10.878;2023-06-14T00:54:11;99833.69;;;18.30;57.31
80726;BME280;70113;59.928;10.878;2023-06-14T00:56:37;99844.78;;;18.22;57.84
80726;BME280;70113;59.928;10.878;2023-06-14T00:59:04;99837.88;;;18.18;57.61
80726;BME280;70113;59.928;10.878;2023-06-14T01:01:32;99848.75;;;18.15;57.87
80726;BME280;70113;59.928;10.878;2023-06-14T01:04:00;99830.03;;;17.98;58.43
80726;BME280;70113;59.928;10.878;2023-06-14T01:06:59;99838.59;;;18.05;58.08
80726;BME280;70113;59.928;10.878;2023-06-14T01:12:16;99841.13;;;17.90;58.49
80726;BME280;70113;59.928;10.878;2023-06-14T01:14:47;99833.41;;;17.84;58.33
80726;BME280;70113;59.928;10.878;2023-06-14T01:17:14;99841.53;;;17.83;58.33
80726;BME280;70113;59.928;10.878;2023-06-14T01:19:43;99838.22;;;17.77;58.36
80726;BME280;70113;59.928;10.878;2023-06-14T01:22:10;99846.56;;;17.89;57.94
80726;BME280;70113;59.928;10.878;2023-06-14T01:24:36;99847.91;;;17.97;57.59
80726;BME280;70113;59.928;10.878;2023-06-14T01:27:05;99841.44;;;18.02;57.16
80726;BME280;70113;59.928;10.878;2023-06-14T01:29:32;99833.50;;;18.00;56.94
80726;BME280;70113;59.928;10.878;2023-06-14T01:31:59;99844.69;;;17.91;57.63
80726;BME280;70113;59.928;10.878;2023-06-14T01:34:26;99837.38;;;17.94;57.24
80726;BME280;70113;59.928;10.878;2023-06-14T01:36:53;99847.50;;;17.70;58.62
80726;BME280;70113;59.928;10.878;2023-06-14T01:39:21;99828.75;;;17.53;58.78
80726;BME280;70113;59.928;10.878;2023-06-14T01:41:49;99831.75;;;17.64;58.26
80726;BME280;70113;59.928;10.878;2023-06-14T01:44:17;99837.88;;;17.66;58.03
80726;BME280;70113;59.928;10.878;2023-06-14T01:46:44;99846.06;;;17.63;58.43
80726;BME280;70113;59.928;10.878;2023-06-14T01:49:11;99842.63;;;17.79;57.42
80726;BME280;70113;59.928;10.878;2023-06-14T01:51:37;99842.63;;;17.96;57.05
80726;BME280;70113;59.928;10.878;2023-06-14T01:54:03;99842.41;;;18.01;57.84
80726;BME280;70113;59.928;10.878;2023-06-14T01:56:29;99820.47;;;17.94;58.08
80726;BME280;70113;59.928;10.878;2023-06-14T01:58:54;99843.91;;;17.89;59.58
80726;BME280;70113;59.928;10.878;2023-06-14T02:01:21;99849.47;;;17.84;60.41
80726;BME280;70113;59.928;10.878;2023-06-14T02:03:47;99845.13;;;17.82;60.53
80726;BME280;70113;59.928;10.878;2023-06-14T02:06:14;99820.84;;;17.86;59.49
80726;BME280;70113;59.928;10.878;2023-06-14T02:08:41;99852.84;;;18.05;58.71
80726;BME280;70113;59.928;10.878;2023-06-14T02:11:08;99812.44;;;17.94;58.59
80726;BME280;70113;59.928;10.878;2023-06-14T02:13:34;99809.13;;;17.89;58.67
80726;BME280;70113;59.928;10.878;2023-06-14T02:16:00;99827.53;;;17.95;58.71
80726;BME280;70113;59.928;10.878;2023-06-14T02:18:26;99820.44;;;17.76;59.81
80726;BME280;70113;59.928;10.878;2023-06-14T02:20:52;99845.78;;;17.87;60.17
80726;BME280;70113;59.928;10.878;2023-06-14T02:23:18;99821.22;;;17.61;60.39
80726;BME280;70113;59.928;10.878;2023-06-14T02:25:44;99829.69;;;17.69;59.89
80726;BME280;70113;59.928;10.878;2023-06-14T02:28:11;99837.22;;;17.80;60.60
80726;BME280;70113;59.928;10.878;2023-06-14T02:30:37;99826.72;;;17.58;60.58
80726;BME280;70113;59.928;10.878;2023-06-14T02:33:03;99825.38;;;17.49;60.96
80726;BME280;70113;59.928;10.878;2023-06-14T02:35:30;99827.47;;;17.43;61.25
80726;BME280;70113;59.928;10.878;2023-06-14T02:37:56;99851.16;;;17.50;61.06
80726;BME280;70113;59.928;10.878;2023-06-14T02:40:22;99849.75;;;17.61;60.57
80726;BME280;70113;59.928;10.878;2023-06-14T02:42:48;99848.94;;;17.41;61.64
80726;BME280;70113;59.928;10.878;2023-06-14T02:45:14;99832.22;;;17.55;60.62
80726;BME280;70113;59.928;10.878;2023-06-14T02:47:40;99823.34;;;17.37;60.65
80726;BME280;70113;59.928;10.878;2023-06-14T02:50:06;99852.84;;;17.70;59.78
80726;BME280;70113;59.928;10.878;2023-06-14T02:52:35;99839.31;;;17.73;59.56
80726;BME280;70113;59.928;10.878;2023-06-14T02:55:01;99848.03;;;17.77;59.70
80726;BME280;70113;59.928;10.878;2023-06-14T02:57:26;99846.78;;;17.67;60.68
80726;BME280;70113;59.928;10.878;2023-06-14T02:59:52;99845.59;;;17.55;61.32
80726;BME280;70113;59.928;10.878;2023-06-14T03:02:18;99823.91;;;17.61;59.89
80726;BME280;70113;59.928;10.878;2023-06-14T03:04:43;99847.28;;;17.92;59.26
80726;BME280;70113;59.928;10.878;2023-06-14T03:07:12;99836.66;;;17.91;59.20
80726;BME280;70113;59.928;10.878;2023-06-14T03:09:39;99838.78;;;17.84;59.49
80726;BME280;70113;59.928;10.878;2023-06-14T03:12:07;99844.81;;;18.05;59.06
80726;BME280;70113;59.928;10.878;2023-06-14T03:14:33;99818.69;;;17.75;60.56
80726;BME280;70113;59.928;10.878;2023-06-14T03:17:00;99814.88;;;17.81;59.39
80726;BME280;70113;59.928;10.878;2023-06-14T03:19:26;99845.28;;;18.13;59.10
80726;BME280;70113;59.928;10.878;2023-06-14T03:21:52;99844.69;;;17.91;60.31
80726;BME280;70113;59.928;10.878;2023-06-14T03:24:19;99837.91;;;17.84;59.76
80726;BME280;70113;59.928;10.878;2023-06-14T03:26:45;99848.06;;;18.12;59.25
80726;BME280;70113;59.928;10.878;2023-06-14T03:29:11;99856.13;;;18.28;58.84
80726;BME280;70113;59.928;10.878;2023-06-14T03:31:56;99861.38;;;18.29;59.01
80726;BME280;70113;59.928;10.878;2023-06-14T03:34:22;99852.63;;;18.43;58.56
80726;BME280;70113;59.928;10.878;2023-06-14T03:36:48;99852.28;;;18.49;58.58
80726;BME280;70113;59.928;10.878;2023-06-14T03:39:14;99853.59;;;18.58;57.85
80726;BME280;70113;59.928;10.878;2023-06-14T03:41:40;99856.59;;;18.36;59.39
80726;BME280;70113;59.928;10.878;2023-06-14T03:44:06;99859.09;;;18.39;59.71
80726;BME280;70113;59.928;10.878;2023-06-14T03:46:31;99823.22;;;18.26;60.06
80726;BME280;70113;59.928;10.878;2023-06-14T03:48:57;99869.75;;;18.56;59.38
80726;BME280;70113;59.928;10.878;2023-06-14T03:51:23;99815.22;;;18.08;60.77
80726;BME280;70113;59.928;10.878;2023-06-14T03:53:50;99866.03;;;18.59;59.19
80726;BME280;70113;59.928;10.878;2023-06-14T03:56:16;99843.69;;;18.60;58.59
80726;BME280;70113;59.928;10.878;2023-06-14T03:58:42;99829.44;;;18.59;58.33
80726;BME280;70113;59.928;10.878;2023-06-14T04:01:07;99844.53;;;18.60;59.46
80726;BME280;70113;59.928;10.878;2023-06-14T04:03:33;99866.38;;;18.86;58.46
80726;BME280;70113;59.928;10.878;2023-06-14T04:05:59;99842.38;;;18.67;58.42
80726;BME280;70113;59.928;10.878;2023-06-14T04:08:25;99872.66;;;18.85;59.00
80726;BME280;70113;59.928;10.878;2023-06-14T04:10:51;99871.28;;;18.94;58.38
80726;BME280;70113;59.928;10.878;2023-06-14T04:13:16;99882.78;;;18.96;58.33
80726;BME280;70113;59.928;10.878;2023-06-14T04:15:43;99875.09;;;18.89;58.87
80726;BME280;70113;59.928;10.878;2023-06-14T04:18:11;99883.81;;;18.77;59.80
80726;BME280;70113;59.928;10.878;2023-06-14T04:20:37;99883.72;;;18.79;59.39
80726;BME280;70113;59.928;10.878;2023-06-14T04:23:13;99848.59;;;18.67;58.95
80726;BME280;70113;59.928;10.878;2023-06-14T04:25:39;99891.84;;;18.77;60.38
80726;BME280;70113;59.928;10.878;2023-06-14T04:28:06;99888.84;;;18.83;59.39
80726;BME280;70113;59.928;10.878;2023-06-14T04:30:34;99893.75;;;18.91;59.81
80726;BME280;70113;59.928;10.878;2023-06-14T04:33:00;99901.28;;;19.00;59.05
80726;BME280;70113;59.928;10.878;2023-06-14T04:35:26;99889.53;;;19.03;58.00
80726;BME280;70113;59.928;10.878;2023-06-14T04:37:54;99898.00;;;19.11;57.70
80726;BME280;70113;59.928;10.878;2023-06-14T04:40:20;99865.94;;;19.09;57.46
80726;BME280;70113;59.928;10.878;2023-06-14T04:42:46;99894.03;;;19.34;57.34
80726;BME280;70113;59.928;10.878;2023-06-14T04:45:13;99896.44;;;19.39;56.97
80726;BME280;70113;59.928;10.878;2023-06-14T04:47:40;99893.34;;;19.46;58.10
80726;BME280;70113;59.928;10.878;2023-06-14T04:50:08;99867.22;;;19.34;57.05
80726;BME280;70113;59.928;10.878;2023-06-14T04:52:33;99899.47;;;19.48;56.90
80726;BME280;70113;59.928;10.878;2023-06-14T04:55:01;99902.16;;;19.48;56.30
80726;BME280;70113;59.928;10.878;2023-06-14T04:57:27;99900.91;;;19.54;56.31
80726;BME280;70113;59.928;10.878;2023-06-14T04:59:53;99887.78;;;19.49;56.05
80726;BME280;70113;59.928;10.878;2023-06-14T05:02:24;99888.13;;;19.59;57.01
80726;BME280;70113;59.928;10.878;2023-06-14T05:04:50;99896.44;;;19.39;56.99
80726;BME280;70113;59.928;10.878;2023-06-14T05:07:16;99877.00;;;19.35;56.71
80726;BME280;70113;59.928;10.878;2023-06-14T05:09:42;99887.34;;;19.41;56.70
80726;BME280;70113;59.928;10.878;2023-06-14T05:12:08;99856.31;;;19.37;56.02
80726;BME280;70113;59.928;10.878;2023-06-14T05:14:36;99880.91;;;19.59;56.54
80726;BME280;70113;59.928;10.878;2023-06-14T05:17:01;99889.53;;;19.66;56.05
80726;BME280;70113;59.928;10.878;2023-06-14T05:19:28;99884.16;;;19.66;56.10
80726;BME280;70113;59.928;10.878;2023-06-14T05:21:54;99885.59;;;19.72;56.01
80726;BME280;70113;59.928;10.878;2023-06-14T05:24:20;99877.38;;;19.75;56.09
80726;BME280;70113;59.928;10.878;2023-06-14T05:26:46;99881.78;;;19.76;55.74
80726;BME280;70113;59.928;10.878;2023-06-14T05:29:12;99884.53;;;19.90;55.97
80726;BME280;70113;59.928;10.878;2023-06-14T05:31:38;99880.03;;;19.91;54.92
80726;BME280;70113;59.928;10.878;2023-06-14T05:34:04;99876.13;;;19.96;55.13
80726;BME280;70113;59.928;10.878;2023-06-14T05:36:29;99884.72;;;19.87;55.29
80726;BME280;70113;59.928;10.878;2023-06-14T05:38:55;99878.09;;;19.93;54.43
80726;BME280;70113;59.928;10.878;2023-06-14T05:41:27;99851.91;;;19.82;55.02
80726;BME280;70113;59.928;10.878;2023-06-14T05:43:54;99895.19;;;20.06;54.90
80726;BME280;70113;59.928;10.878;2023-06-14T05:46:20;99881.97;;;20.03;54.82
80726;BME280;70113;59.928;10.878;2023-06-14T05:48:48;99862.28;;;19.88;54.34
80726;BME280;70113;59.928;10.878;2023-06-14T05:51:14;99899.16;;;20.15;54.38
80726;BME280;70113;59.928;10.878;2023-06-14T05:53:40;99890.09;;;20.01;54.76
80726;BME280;70113;59.928;10.878;2023-06-14T05:56:05;99893.94;;;19.97;54.18
80726;BME280;70113;59.928;10.878;2023-06-14T05:58:31;99888.13;;;20.05;54.41
80726;BME280;70113;59.928;10.878;2023-06-14T06:00:57;99878.00;;;19.94;53.99
80726;BME280;70113;59.928;10.878;2023-06-14T06:03:23;99870.56;;;19.99;54.66
80726;BME280;70113;59.928;10.878;2023-06-14T06:05:48;99901.53;;;20.19;53.96
80726;BME280;70113;59.928;10.878;2023-06-14T06:08:14;99903.97;;;20.24;53.66
80726;BME280;70113;59.928;10.878;2023-06-14T06:10:42;99883.31;;;20.10;54.17
80726;BME280;70113;59.928;10.878;2023-06-14T06:13:08;99898.66;;;20.22;54.73
80726;BME280;70113;59.928;10.878;2023-06-14T06:15:33;99915.81;;;20.06;54.82
80726;BME280;70113;59.928;10.878;2023-06-14T06:17:59;99901.53;;;20.05;55.11
80726;BME280;70113;59.928;10.878;2023-06-14T06:20:25;99899.78;;;20.04;54.71
80726;BME280;70113;59.928;10.878;2023-06-14T06:22:54;99908.06;;;20.15;53.97
80726;BME280;70113;59.928;10.878;2023-06-14T06:25:19;99906.16;;;20.17;54.56
80726;BME280;70113;59.928;10.878;2023-06-14T06:27:46;99913.91;;;20.22;54.56
80726;BME280;70113;59.928;10.878;2023-06-14T06:30:12;99910.66;;;20.17;54.69
80726;BME280;70113;59.928;10.878;2023-06-14T06:32:38;99910.13;;;20.26;54.18
80726;BME280;70113;59.928;10.878;2023-06-14T06:35:03;99915.47;;;20.26;54.34
80726;BME280;70113;59.928;10.878;2023-06-14T06:37:31;99916.16;;;20.30;54.09
80726;BME280;70113;59.928;10.878;2023-06-14T06:39:57;99912.66;;;20.13;54.10
80726;BME280;70113;59.928;10.878;2023-06-14T06:42:23;99931.97;;;20.20;54.94
80726;BME280;70113;59.928;10.878;2023-06-14T06:47:14;99919.16;;;20.09;56.17
80726;BME280;70113;59.928;10.878;2023-06-14T06:49:40;99928.00;;;20.11;56.01
80726;BME280;70113;59.928;10.878;2023-06-14T06:52:06;99941.44;;;20.25;56.14
80726;BME280;70113;59.928;10.878;2023-06-14T06:54:33;99943.25;;;20.25;56.03
80726;BME280;70113;59.928;10.878;2023-06-14T06:56:59;99938.09;;;20.22;55.78
80726;BME280;70113;59.928;10.878;2023-06-14T06:59:25;99922.84;;;20.22;55.45
80726;BME280;70113;59.928;10.878;2023-06-14T07:01:51;99936.22;;;20.38;56.25
80726;BME280;70113;59.928;10.878;2023-06-14T07:04:16;99930.16;;;20.35;56.98
80726;BME280;70113;59.928;10.878;2023-06-14T07:06:42;99939.66;;;20.40;57.12
80726;BME280;70113;59.928;10.878;2023-06-14T07:09:08;99939.16;;;20.34;57.15
80726;BME280;70113;59.928;10.878;2023-06-14T07:11:38;99931.41;;;20.29;57.57
80726;BME280;70113;59.928;10.878;2023-06-14T07:14:05;99944.25;;;20.38;57.49
80726;BME280;70113;59.928;10.878;2023-06-14T07:16:31;99941.00;;;20.33;57.67
80726;BME280;70113;59.928;10.878;2023-06-14T07:18:57;99941.19;;;20.30;57.69
80726;BME280;70113;59.928;10.878;2023-06-14T07:21:22;99925.34;;;20.25;58.04
80726;BME280;70113;59.928;10.878;2023-06-14T07:23:48;99933.97;;;20.31;57.65
80726;BME280;70113;59.928;10.878;2023-06-14T07:26:14;99915.75;;;20.21;58.03
80726;BME280;70113;59.928;10.878;2023-06-14T07:28:40;99948.03;;;20.50;57.86
80726;BME280;70113;59.928;10.878;2023-06-14T07:31:05;99944.03;;;20.57;57.70
80726;BME280;70113;59.928;10.878;2023-06-14T07:33:31;99945.06;;;20.55;57.69
80726;BME280;70113;59.928;10.878;2023-06-14T07:35:57;99948.34;;;20.60;57.46
80726;BME280;70113;59.928;10.878;2023-06-14T07:38:22;99942.03;;;20.75;56.76
80726;BME280;70113;59.928;10.878;2023-06-14T07:40:48;99941.25;;;20.73;56.85
80726;BME280;70113;59.928;10.878;2023-06-14T07:43:14;99948.06;;;20.79;56.83
80726;BME280;70113;59.928;10.878;2023-06-14T07:45:40;99927.63;;;20.76;56.28
80726;BME280;70113;59.928;10.878;2023-06-14T07:48:05;99909.97;;;20.72;56.47
80726;BME280;70113;59.928;10.878;2023-06-14T07:50:32;99935.13;;;20.85;56.02
80726;BME280;70113;59.928;10.878;2023-06-14T07:52:58;99931.28;;;20.89;56.12
80726;BME280;70113;59.928;10.878;2023-06-14T07:55:23;99937.97;;;20.97;55.62
80726;BME280;70113;59.928;10.878;2023-06-14T07:57:50;99935.03;;;21.01;55.95
80726;BME280;70113;59.928;10.878;2023-06-14T08:00:16;99917.06;;;20.87;56.05
80726;BME280;70113;59.928;10.878;2023-06-14T08:02:44;99940.78;;;21.09;55.54
80726;BME280;70113;59.928;10.878;2023-06-14T08:05:10;99938.03;;;21.24;55.10
80726;BME280;70113;59.928;10.878;2023-06-14T08:07:37;99938.16;;;21.22;54.38
80726;BME280;70113;59.928;10.878;2023-06-14T08:10:04;99942.97;;;21.17;54.52
80726;BME280;70113;59.928;10.878;2023-06-14T08:12:31;99917.06;;;21.02;55.00
80726;BME280;70113;59.928;10.878;2023-06-14T08:14:56;99926.09;;;21.01;55.96
80726;BME280;70113;59.928;10.878;2023-06-14T08:17:22;99932.00;;;21.20;55.83
80726;BME280;70113;59.928;10.878;2023-06-14T08:19:47;99934.00;;;21.31;55.65
80726;BME280;70113;59.928;10.878;2023-06-14T08:22:13;99937.47;;;21.33;55.50
80726;BME280;70113;59.928;10.878;2023-06-14T08:24:39;99934.00;;;21.45;55.11
80726;BME280;70113;59.928;10.878;2023-06-14T08:27:06;99934.41;;;21.39;55.01
80726;BME280;70113;59.928;10.878;2023-06-14T08:29:32;99908.28;;;21.27;54.32
80726;BME280;70113;59.928;10.878;2023-06-14T08:31:58;99933.91;;;21.47;54.49
80726;BME280;70113;59.928;10.878;2023-06-14T08:34:23;99937.13;;;21.66;53.54
80726;BME280;70113;59.928;10.878;2023-06-14T08:36:50;99938.06;;;21.65;52.18
80726;BME280;70113;59.928;10.878;2023-06-14T08:39:16;99909.59;;;21.48;52.19
80726;BME280;70113;59.928;10.878;2023-06-14T08:41:46;99936.25;;;21.66;51.88
80726;BME280;70113;59.928;10.878;2023-06-14T08:44:12;99917.50;;;21.64;51.93
80726;BME280;70113;59.928;10.878;2023-06-14T08:49:31;99937.13;;;21.66;51.55
80726;BME280;70113;59.928;10.878;2023-06-14T08:51:58;99935.44;;;21.78;51.69
80726;BME280;70113;59.928;10.878;2023-06-14T08:54:28;99918.81;;;21.71;51.93
80726;BME280;70113;59.928;10.878;2023-06-14T08:56:59;99946.25;;;21.91;51.34
80726;BME280;70113;59.928;10.878;2023-06-14T08:59:28;99931.81;;;21.92;51.77
80726;BME280;70113;59.928;10.878;2023-06-14T09:01:54;99933.56;;;21.93;50.19
80726;BME280;70113;59.928;10.878;2023-06-14T09:04:23;99902.28;;;21.77;49.75
80726;BME280;70113;59.928;10.878;2023-06-14T09:06:58;99928.69;;;21.98;49.06
80726;BME280;70113;59.928;10.878;2023-06-14T09:09:24;99931.09;;;22.02;48.89
80726;BME280;70113;59.928;10.878;2023-06-14T09:11:51;99904.59;;;21.96;48.78
80726;BME280;70113;59.928;10.878;2023-06-14T09:14:24;99910.31;;;22.04;48.22
80726;BME280;70113;59.928;10.878;2023-06-14T09:16:56;99926.59;;;22.16;47.57
80726;BME280;70113;59.928;10.878;2023-06-14T09:19:23;99909.28;;;22.20;47.26
80726;BME280;70113;59.928;10.878;2023-06-14T09:21:49;99911.44;;;22.27;46.38
80726;BME280;70113;59.928;10.878;2023-06-14T09:24:17;99912.22;;;22.29;45.56
80726;BME280;70113;59.928;10.878;2023-06-14T09:26:42;99913.91;;;22.30;43.64
80726;BME280;70113;59.928;10.878;2023-06-14T09:29:09;99921.69;;;22.35;43.74
80726;BME280;70113;59.928;10.878;2023-06-14T09:31:35;99897.66;;;22.19;42.51
80726;BME280;70113;59.928;10.878;2023-06-14T09:34:02;99900.25;;;22.34;42.64
80726;BME280;70113;59.928;10.878;2023-06-14T09:36:31;99905.53;;;22.35;41.68
80726;BME280;70113;59.928;10.878;2023-06-14T09:38:58;99902.72;;;22.37;39.98
80726;BME280;70113;59.928;10.878;2023-06-14T09:41:35;99889.59;;;22.32;40.30
80726;BME280;70113;59.928;10.878;2023-06-14T09:44:02;99906.28;;;22.50;38.59
80726;BME280;70113;59.928;10.878;2023-06-14T09:46:30;99911.03;;;22.46;38.17
80726;BME280;70113;59.928;10.878;2023-06-14T09:48:56;99905.84;;;22.56;37.85
80726;BME280;70113;59.928;10.878;2023-06-14T09:51:23;99906.06;;;22.66;37.85
80726;BME280;70113;59.928;10.878;2023-06-14T09:53:49;99915.97;;;22.65;38.01
80726;BME280;70113;59.928;10.878;2023-06-14T09:56:23;99922.00;;;22.69;38.51
80726;BME280;70113;59.928;10.878;2023-06-14T09:58:54;99911.78;;;22.61;39.25
80726;BME280;70113;59.928;10.878;2023-06-14T10:01:21;99891.31;;;22.59;39.35
80726;BME280;70113;59.928;10.878;2023-06-14T10:03:50;99893.22;;;22.69;38.91
80726;BME280;70113;59.928;10.878;2023-06-14T10:06:16;99902.72;;;22.75;37.28
80726;BME280;70113;59.928;10.878;2023-06-14T10:08:43;99897.22;;;22.77;36.75
80726;BME280;70113;59.928;10.878;2023-06-14T10:11:12;99907.97;;;22.89;36.20
80726;BME280;70113;59.928;10.878;2023-06-14T10:13:38;99891.03;;;22.87;35.63
80726;BME280;70113;59.928;10.878;2023-06-14T10:16:12;99913.59;;;22.99;35.30
80726;BME280;70113;59.928;10.878;2023-06-14T10:18:51;99906.03;;;23.04;34.85
80726;BME280;70113;59.928;10.878;2023-06-14T10:23:53;99899.44;;;23.21;34.55
80726;BME280;70113;59.928;10.878;2023-06-14T10:26:21;99894.13;;;23.19;33.59
80726;BME280;70113;59.928;10.878;2023-06-14T10:29:01;99889.41;;;23.23;32.73
80726;BME280;70113;59.928;10.878;2023-06-14T10:31:58;99890.03;;;23.27;32.47
80726;BME280;70113;59.928;10.878;2023-06-14T10:34:26;99869.84;;;23.19;33.07
80726;BME280;70113;59.928;10.878;2023-06-14T10:39:42;99865.31;;;23.20;33.13
80726;BME280;70113;59.928;10.878;2023-06-14T10:42:08;99890.81;;;23.40;32.67
80726;BME280;70113;59.928;10.878;2023-06-14T10:47:06;99883.41;;;23.55;31.18
80726;BME280;70113;59.928;10.878;2023-06-14T10:49:50;99877.16;;;23.54;30.82
80726;BME280;70113;59.928;10.878;2023-06-14T10:52:21;99873.47;;;23.55;30.08
80726;BME280;70113;59.928;10.878;2023-06-14T10:54:59;99878.84;;;23.68;29.98
80726;BME280;70113;59.928;10.878;2023-06-14T10:57:25;99871.16;;;23.75;29.92
80726;BME280;70113;59.928;10.878;2023-06-14T10:59:51;99873.16;;;23.84;29.10
80726;BME280;70113;59.928;10.878;2023-06-14T11:05:14;99882.41;;;23.93;29.21
80726;BME280;70113;59.928;10.878;2023-06-14T11:10:39;99871.50;;;24.05;30.52
80726;BME280;70113;59.928;10.878;2023-06-14T11:13:06;99873.47;;;24.15;28.94
80726;BME280;70113;59.928;10.878;2023-06-14T11:15:34;99867.13;;;24.16;28.38
80726;BME280;70113;59.928;10.878;2023-06-14T11:18:09;99862.69;;;24.15;29.03
80726;BME280;70113;59.928;10.878;2023-06-14T11:20:36;99871.44;;;24.41;27.87
80726;BME280;70113;59.928;10.878;2023-06-14T11:23:03;99850.66;;;24.30;28.50
80726;BME280;70113;59.928;10.878;2023-06-14T11:25:29;99869.75;;;24.40;28.23
80726;BME280;70113;59.928;10.878;2023-06-14T11:27:55;99846.06;;;24.43;27.61
80726;BME280;70113;59.928;10.878;2023-06-14T11:30:21;99858.47;;;24.46;27.91
80726;BME280;70113;59.928;10.878;2023-06-14T11:32:53;99847.53;;;24.59;28.34
80726;BME280;70113;59.928;10.878;2023-06-14T11:35:21;99840.41;;;24.58;28.41
80726;BME280;70113;59.928;10.878;2023-06-14T11:37:52;99843.50;;;24.75;28.76
80726;BME280;70113;59.928;10.878;2023-06-14T11:40:18;99844.84;;;24.81;28.49
80726;BME280;70113;59.928;10.878;2023-06-14T11:42:44;99832.16;;;24.82;27.91
80726;BME280;70113;59.928;10.878;2023-06-14T11:45:11;99847.41;;;24.94;28.71
80726;BME280;70113;59.928;10.878;2023-06-14T11:47:39;99852.56;;;24.97;29.07
80726;BME280;70113;59.928;10.878;2023-06-14T11:50:07;99851.31;;;25.01;29.02
80726;BME280;70113;59.928;10.878;2023-06-14T11:52:34;99830.50;;;25.01;28.55
80726;BME280;70113;59.928;10.878;2023-06-14T11:55:01;99845.78;;;25.02;29.27
80726;BME280;70113;59.928;10.878;2023-06-14T11:57:33;99836.69;;;25.15;29.64
80726;BME280;70113;59.928;10.878;2023-06-14T11:59:59;99834.06;;;25.24;28.25
80726;BME280;70113;59.928;10.878;2023-06-14T12:02:25;99828.31;;;25.18;29.16
80726;BME280;70113;59.928;10.878;2023-06-14T12:04:53;99829.00;;;25.31;29.56
80726;BME280;70113;59.928;10.878;2023-06-14T12:07:21;99831.78;;;25.52;28.68
80726;BME280;70113;59.928;10.878;2023-06-14T12:12:21;99828.94;;;25.54;28.70
80726;BME280;70113;59.928;10.878;2023-06-14T12:14:47;99824.25;;;25.56;28.18
80726;BME280;70113;59.928;10.878;2023-06-14T12:17:16;99821.69;;;25.75;28.59
80726;BME280;70113;59.928;10.878;2023-06-14T12:19:43;99806.91;;;25.79;27.77
80726;BME280;70113;59.928;10.878;2023-06-14T12:22:10;99807.75;;;25.80;28.71
80726;BME280;70113;59.928;10.878;2023-06-14T12:24:35;99814.66;;;25.84;28.22
80726;BME280;70113;59.928;10.878;2023-06-14T12:27:01;99820.41;;;25.90;29.00
80726;BME280;70113;59.928;10.878;2023-06-14T12:29:30;99819.28;;;25.93;27.86
80726;BME280;70113;59.928;10.878;2023-06-14T12:31:57;99810.50;;;26.01;27.30
80726;BME280;70113;59.928;10.878;2023-06-14T12:34:26;99809.13;;;26.06;27.23
80726;BME280;70113;59.928;10.878;2023-06-14T12:36:53;99811.41;;;26.11;27.41
80726;BME280;70113;59.928;10.878;2023-06-14T12:39:20;99810.34;;;26.23;27.83
80726;BME280;70113;59.928;10.878;2023-06-14T12:41:46;99801.34;;;26.23;26.83
80726;BME280;70113;59.928;10.878;2023-06-14T12:44:13;99805.19;;;26.20;27.00
80726;BME280;70113;59.928;10.878;2023-06-14T12:46:39;99798.75;;;26.42;27.36
80726;BME280;70113;59.928;10.878;2023-06-14T12:51:32;99786.72;;;26.35;27.62
80726;BME280;70113;59.928;10.878;2023-06-14T12:53:58;99801.53;;;26.52;27.01
80726;BME280;70113;59.928;10.878;2023-06-14T12:56:24;99791.69;;;26.51;27.02
80726;BME280;70113;59.928;10.878;2023-06-14T12:58:49;99781.97;;;26.27;26.44
80726;BME280;70113;59.928;10.878;2023-06-14T13:01:15;99783.06;;;26.15;27.49
80726;BME280;70113;59.928;10.878;2023-06-14T13:03:41;99788.78;;;26.22;27.56
80726;BME280;70113;59.928;10.878;2023-06-14T13:06:07;99787.72;;;26.34;27.87
80726;BME280;70113;59.928;10.878;2023-06-14T13:08:32;99782.19;;;26.45;28.38
80726;BME280;70113;59.928;10.878;2023-06-14T13:10:58;99793.22;;;26.84;27.76
80726;BME280;70113;59.928;10.878;2023-06-14T13:13:24;99766.75;;;26.67;26.53
80726;BME280;70113;59.928;10.878;2023-06-14T13:15:50;99773.72;;;26.59;27.06